メルボルン の空港の天気 - METARとTAF

メルボルン空港 ( YMML / MEL ) - オーストラリア ビクトリア州、Melbourne Airport
飛行場実況気象(Metar)
観測時間09/28 10:30 AEST (09/28 00:30 UTC)
風向・風速南 8m/s
視程10km以上
天気現象
全天の4割程度の雲 雲底高度 300m
全天の4割程度の雲 雲底高度 520m
全天の8割程度の雲 雲底高度 700m
気温13℃
湿度88%
気圧1019hPa
METARYMML 280030Z 19015KT 9999 SCT010 SCT017 BKN023 13/11 Q1019 RF00/0/000/0
過去の天気等 Google飛行場航空写真 Wunderground天気予報

過去48時間のMETAR

飛行場予報(TAF)
発表時間: 9/28 09:08 AEST (9/27 23:08 UTC)
予報対象時間: 28日10時 AEST ~ 29日16時 AEST
風向・風速南 7m/s
視程10km以上
天気現象弱いしゅう雨
少しの雲 雲底高度 180m
全天の8割程度の雲 雲底高度 370m
28日12時 AEST から
風向・風速南 8m/s 瞬間風速 13m/s
視程10km以上
天気現象弱いしゅう雨
全天の4割程度の雲 雲底高度 460m
全天の8割程度の雲 雲底高度 610m
28日18時 AEST から
風向・風速南 5m/s
視程10km以上
天気現象弱いしゅう雨
全天の4割程度の雲 雲底高度 460m
全天の8割程度の雲 雲底高度 760m
29日11時 AEST から
風向・風速南 5m/s
視程10km以上
天気現象運行に影響にある天気現象が終了
全天の8割程度の雲 雲底高度 760m
TAF AMD YMML 272308Z 2800/2906 18014KT 9999 -SHRA FEW006 BKN012
FM280200 19015G25KT 9999 -SHRA SCT015 BKN020
FM280800 19010KT 9999 -SHRA SCT015 BKN025
FM290100 18010KT 9999 NSW BKN025 INTER 2800/2804 4000 SHRA BKN010 INTER 2811/2815 5000 SHRA BKN015